sensor_id;sensor_type;location;lat;lon;timestamp;P1;durP1;ratioP1;P2;durP2;ratioP2
16665;SDS011;8446;50.998;6.250;2022-07-30T00:02:26;11.53;;;5.90;;
16665;SDS011;8446;50.998;6.250;2022-07-30T00:04:53;12.80;;;5.67;;
16665;SDS011;8446;50.998;6.250;2022-07-30T00:07:20;6.87;;;6.17;;
16665;SDS011;8446;50.998;6.250;2022-07-30T00:09:46;8.93;;;6.27;;
16665;SDS011;8446;50.998;6.250;2022-07-30T00:12:13;7.80;;;5.60;;
16665;SDS011;8446;50.998;6.250;2022-07-30T00:14:41;7.60;;;6.03;;
16665;SDS011;8446;50.998;6.250;2022-07-30T00:17:08;12.87;;;6.10;;
16665;SDS011;8446;50.998;6.250;2022-07-30T00:19:35;11.43;;;6.27;;
16665;SDS011;8446;50.998;6.250;2022-07-30T00:22:02;8.87;;;5.77;;
16665;SDS011;8446;50.998;6.250;2022-07-30T00:24:29;7.17;;;6.13;;
16665;SDS011;8446;50.998;6.250;2022-07-30T00:26:56;6.73;;;5.43;;
16665;SDS011;8446;50.998;6.250;2022-07-30T00:29:22;10.30;;;6.00;;
16665;SDS011;8446;50.998;6.250;2022-07-30T00:31:51;13.23;;;5.93;;
16665;SDS011;8446;50.998;6.250;2022-07-30T00:34:17;9.37;;;6.63;;
16665;SDS011;8446;50.998;6.250;2022-07-30T00:36:44;10.23;;;6.23;;
16665;SDS011;8446;50.998;6.250;2022-07-30T00:39:11;8.23;;;5.63;;
16665;SDS011;8446;50.998;6.250;2022-07-30T00:41:51;8.60;;;5.87;;
16665;SDS011;8446;50.998;6.250;2022-07-30T00:44:22;6.87;;;6.10;;
16665;SDS011;8446;50.998;6.250;2022-07-30T00:46:48;6.37;;;5.30;;
16665;SDS011;8446;50.998;6.250;2022-07-30T00:49:17;9.50;;;5.73;;
16665;SDS011;8446;50.998;6.250;2022-07-30T00:51:44;10.43;;;6.20;;
16665;SDS011;8446;50.998;6.250;2022-07-30T00:54:11;8.47;;;5.90;;
16665;SDS011;8446;50.998;6.250;2022-07-30T00:56:39;16.47;;;6.60;;
16665;SDS011;8446;50.998;6.250;2022-07-30T00:59:06;9.00;;;6.57;;
16665;SDS011;8446;50.998;6.250;2022-07-30T01:01:34;7.53;;;5.70;;
16665;SDS011;8446;50.998;6.250;2022-07-30T01:04:02;8.63;;;5.53;;
16665;SDS011;8446;50.998;6.250;2022-07-30T01:06:32;8.73;;;6.00;;
16665;SDS011;8446;50.998;6.250;2022-07-30T01:08:59;8.57;;;5.80;;
16665;SDS011;8446;50.998;6.250;2022-07-30T01:11:27;10.07;;;6.37;;
16665;SDS011;8446;50.998;6.250;2022-07-30T01:13:59;8.80;;;5.20;;
16665;SDS011;8446;50.998;6.250;2022-07-30T01:16:26;11.23;;;5.90;;
16665;SDS011;8446;50.998;6.250;2022-07-30T01:18:53;12.30;;;6.30;;
16665;SDS011;8446;50.998;6.250;2022-07-30T01:21:43;9.73;;;5.50;;
16665;SDS011;8446;50.998;6.250;2022-07-30T01:24:17;6.40;;;5.70;;
16665;SDS011;8446;50.998;6.250;2022-07-30T01:26:52;17.73;;;6.40;;
16665;SDS011;8446;50.998;6.250;2022-07-30T01:29:20;9.37;;;6.40;;
16665;SDS011;8446;50.998;6.250;2022-07-30T01:31:49;15.17;;;6.63;;
16665;SDS011;8446;50.998;6.250;2022-07-30T01:34:20;10.43;;;6.50;;
16665;SDS011;8446;50.998;6.250;2022-07-30T01:36:48;11.30;;;6.93;;
16665;SDS011;8446;50.998;6.250;2022-07-30T01:39:16;11.13;;;5.77;;
16665;SDS011;8446;50.998;6.250;2022-07-30T01:41:44;10.70;;;5.97;;
16665;SDS011;8446;50.998;6.250;2022-07-30T01:44:14;9.53;;;6.13;;
16665;SDS011;8446;50.998;6.250;2022-07-30T01:46:43;7.07;;;5.93;;
16665;SDS011;8446;50.998;6.250;2022-07-30T01:49:12;11.50;;;6.30;;
16665;SDS011;8446;50.998;6.250;2022-07-30T01:51:40;11.87;;;6.90;;
16665;SDS011;8446;50.998;6.250;2022-07-30T01:54:09;15.30;;;7.03;;
16665;SDS011;8446;50.998;6.250;2022-07-30T01:56:37;13.43;;;7.27;;
16665;SDS011;8446;50.998;6.250;2022-07-30T01:59:05;11.20;;;7.73;;
16665;SDS011;8446;50.998;6.250;2022-07-30T02:01:35;23.57;;;7.97;;
16665;SDS011;8446;50.998;6.250;2022-07-30T02:04:02;13.80;;;7.40;;
16665;SDS011;8446;50.998;6.250;2022-07-30T02:06:32;13.17;;;7.30;;
16665;SDS011;8446;50.998;6.250;2022-07-30T02:09:03;10.40;;;7.23;;
16665;SDS011;8446;50.998;6.250;2022-07-30T02:11:31;8.23;;;6.57;;
16665;SDS011;8446;50.998;6.250;2022-07-30T02:14:23;9.53;;;7.60;;
16665;SDS011;8446;50.998;6.250;2022-07-30T02:16:55;11.60;;;7.27;;
16665;SDS011;8446;50.998;6.250;2022-07-30T02:19:28;9.90;;;7.53;;
16665;SDS011;8446;50.998;6.250;2022-07-30T02:22:02;19.37;;;7.03;;
16665;SDS011;8446;50.998;6.250;2022-07-30T02:24:32;10.87;;;8.50;;
16665;SDS011;8446;50.998;6.250;2022-07-30T02:27:02;13.93;;;7.97;;
16665;SDS011;8446;50.998;6.250;2022-07-30T02:29:34;11.40;;;6.40;;
16665;SDS011;8446;50.998;6.250;2022-07-30T02:32:04;12.23;;;7.00;;
16665;SDS011;8446;50.998;6.250;2022-07-30T02:34:35;9.20;;;7.70;;
16665;SDS011;8446;50.998;6.250;2022-07-30T02:37:05;11.87;;;7.87;;
16665;SDS011;8446;50.998;6.250;2022-07-30T02:39:33;10.27;;;7.20;;
16665;SDS011;8446;50.998;6.250;2022-07-30T02:42:02;12.73;;;7.73;;
16665;SDS011;8446;50.998;6.250;2022-07-30T02:44:31;9.30;;;7.90;;
16665;SDS011;8446;50.998;6.250;2022-07-30T02:47:00;12.93;;;8.60;;
16665;SDS011;8446;50.998;6.250;2022-07-30T02:49:29;11.63;;;7.67;;
16665;SDS011;8446;50.998;6.250;2022-07-30T02:51:59;12.10;;;6.80;;
16665;SDS011;8446;50.998;6.250;2022-07-30T02:54:27;12.50;;;8.00;;
16665;SDS011;8446;50.998;6.250;2022-07-30T02:56:56;11.40;;;8.30;;
16665;SDS011;8446;50.998;6.250;2022-07-30T02:59:25;20.00;;;7.83;;
16665;SDS011;8446;50.998;6.250;2022-07-30T03:01:55;15.87;;;8.20;;
16665;SDS011;8446;50.998;6.250;2022-07-30T03:04:23;13.17;;;8.07;;
16665;SDS011;8446;50.998;6.250;2022-07-30T03:06:54;8.03;;;6.80;;
16665;SDS011;8446;50.998;6.250;2022-07-30T03:09:21;17.23;;;8.23;;
16665;SDS011;8446;50.998;6.250;2022-07-30T03:11:48;16.93;;;8.63;;
16665;SDS011;8446;50.998;6.250;2022-07-30T03:14:17;10.70;;;7.60;;
16665;SDS011;8446;50.998;6.250;2022-07-30T03:16:46;13.30;;;8.00;;
16665;SDS011;8446;50.998;6.250;2022-07-30T03:19:18;14.80;;;8.20;;
16665;SDS011;8446;50.998;6.250;2022-07-30T03:21:48;16.00;;;8.23;;
16665;SDS011;8446;50.998;6.250;2022-07-30T03:24:17;21.30;;;8.57;;
16665;SDS011;8446;50.998;6.250;2022-07-30T03:26:45;9.93;;;7.60;;
16665;SDS011;8446;50.998;6.250;2022-07-30T03:29:13;18.10;;;8.67;;
16665;SDS011;8446;50.998;6.250;2022-07-30T03:31:41;14.90;;;8.20;;
16665;SDS011;8446;50.998;6.250;2022-07-30T03:34:08;12.23;;;7.30;;
16665;SDS011;8446;50.998;6.250;2022-07-30T03:36:36;13.20;;;8.70;;
16665;SDS011;8446;50.998;6.250;2022-07-30T03:39:05;15.10;;;9.03;;
16665;SDS011;8446;50.998;6.250;2022-07-30T03:41:34;31.97;;;9.43;;
16665;SDS011;8446;50.998;6.250;2022-07-30T03:44:02;19.60;;;8.00;;
16665;SDS011;8446;50.998;6.250;2022-07-30T03:46:30;15.10;;;8.40;;
16665;SDS011;8446;50.998;6.250;2022-07-30T03:49:00;10.70;;;8.20;;
16665;SDS011;8446;50.998;6.250;2022-07-30T03:51:27;15.80;;;8.70;;
16665;SDS011;8446;50.998;6.250;2022-07-30T03:53:54;13.57;;;9.33;;
16665;SDS011;8446;50.998;6.250;2022-07-30T03:56:21;26.17;;;10.03;;
16665;SDS011;8446;50.998;6.250;2022-07-30T03:58:50;17.53;;;9.37;;
16665;SDS011;8446;50.998;6.250;2022-07-30T04:01:17;18.60;;;10.10;;
16665;SDS011;8446;50.998;6.250;2022-07-30T04:03:43;17.33;;;10.90;;
16665;SDS011;8446;50.998;6.250;2022-07-30T04:06:10;15.00;;;9.40;;
16665;SDS011;8446;50.998;6.250;2022-07-30T04:08:37;23.20;;;11.40;;
16665;SDS011;8446;50.998;6.250;2022-07-30T04:11:04;19.83;;;10.57;;
16665;SDS011;8446;50.998;6.250;2022-07-30T04:13:30;21.83;;;9.90;;
16665;SDS011;8446;50.998;6.250;2022-07-30T04:16:00;15.57;;;10.10;;
16665;SDS011;8446;50.998;6.250;2022-07-30T04:18:34;19.13;;;9.77;;
16665;SDS011;8446;50.998;6.250;2022-07-30T04:21:04;13.90;;;8.80;;
16665;SDS011;8446;50.998;6.250;2022-07-30T04:23:34;14.30;;;8.53;;
16665;SDS011;8446;50.998;6.250;2022-07-30T04:26:01;16.70;;;9.20;;
16665;SDS011;8446;50.998;6.250;2022-07-30T04:28:28;17.97;;;9.07;;
16665;SDS011;8446;50.998;6.250;2022-07-30T04:30:55;25.17;;;9.57;;
16665;SDS011;8446;50.998;6.250;2022-07-30T04:33:23;17.77;;;10.63;;
16665;SDS011;8446;50.998;6.250;2022-07-30T04:35:50;17.60;;;9.30;;
16665;SDS011;8446;50.998;6.250;2022-07-30T04:38:18;16.27;;;10.93;;
16665;SDS011;8446;50.998;6.250;2022-07-30T04:40:45;19.43;;;11.20;;
16665;SDS011;8446;50.998;6.250;2022-07-30T04:43:13;29.30;;;13.17;;
16665;SDS011;8446;50.998;6.250;2022-07-30T04:45:40;31.63;;;14.03;;
16665;SDS011;8446;50.998;6.250;2022-07-30T04:48:07;38.60;;;15.00;;
16665;SDS011;8446;50.998;6.250;2022-07-30T04:50:37;32.30;;;15.77;;
16665;SDS011;8446;50.998;6.250;2022-07-30T04:53:06;32.60;;;14.70;;
16665;SDS011;8446;50.998;6.250;2022-07-30T04:55:34;36.80;;;15.50;;
16665;SDS011;8446;50.998;6.250;2022-07-30T04:58:03;43.27;;;16.97;;
16665;SDS011;8446;50.998;6.250;2022-07-30T05:00:32;30.93;;;15.77;;
16665;SDS011;8446;50.998;6.250;2022-07-30T05:03:00;36.00;;;14.17;;
16665;SDS011;8446;50.998;6.250;2022-07-30T05:05:28;24.83;;;13.90;;
16665;SDS011;8446;50.998;6.250;2022-07-30T05:07:58;27.77;;;13.57;;
16665;SDS011;8446;50.998;6.250;2022-07-30T05:10:26;33.17;;;14.17;;
16665;SDS011;8446;50.998;6.250;2022-07-30T05:12:53;41.27;;;15.90;;
16665;SDS011;8446;50.998;6.250;2022-07-30T05:15:20;33.00;;;16.60;;
16665;SDS011;8446;50.998;6.250;2022-07-30T05:17:47;36.90;;;14.63;;
16665;SDS011;8446;50.998;6.250;2022-07-30T05:20:16;32.20;;;15.87;;
16665;SDS011;8446;50.998;6.250;2022-07-30T05:22:43;33.30;;;16.37;;
16665;SDS011;8446;50.998;6.250;2022-07-30T05:25:11;44.10;;;16.67;;
16665;SDS011;8446;50.998;6.250;2022-07-30T05:27:37;34.23;;;17.70;;
16665;SDS011;8446;50.998;6.250;2022-07-30T05:30:05;35.00;;;16.20;;
16665;SDS011;8446;50.998;6.250;2022-07-30T05:32:33;39.47;;;17.23;;
16665;SDS011;8446;50.998;6.250;2022-07-30T05:34:59;31.73;;;15.43;;
16665;SDS011;8446;50.998;6.250;2022-07-30T05:37:26;34.40;;;16.40;;
16665;SDS011;8446;50.998;6.250;2022-07-30T05:39:53;37.00;;;17.67;;
16665;SDS011;8446;50.998;6.250;2022-07-30T05:42:21;34.77;;;17.73;;
16665;SDS011;8446;50.998;6.250;2022-07-30T05:44:48;34.80;;;16.50;;
16665;SDS011;8446;50.998;6.250;2022-07-30T05:47:15;34.20;;;17.60;;
16665;SDS011;8446;50.998;6.250;2022-07-30T05:49:45;34.93;;;16.40;;
16665;SDS011;8446;50.998;6.250;2022-07-30T05:52:12;39.67;;;19.20;;
16665;SDS011;8446;50.998;6.250;2022-07-30T05:54:39;38.07;;;18.43;;
16665;SDS011;8446;50.998;6.250;2022-07-30T05:57:05;34.37;;;19.73;;
16665;SDS011;8446;50.998;6.250;2022-07-30T05:59:33;42.63;;;20.93;;
16665;SDS011;8446;50.998;6.250;2022-07-30T06:02:00;50.57;;;20.73;;
16665;SDS011;8446;50.998;6.250;2022-07-30T06:04:27;41.07;;;19.70;;
16665;SDS011;8446;50.998;6.250;2022-07-30T06:06:54;40.33;;;20.63;;
16665;SDS011;8446;50.998;6.250;2022-07-30T06:09:21;36.47;;;20.63;;
16665;SDS011;8446;50.998;6.250;2022-07-30T06:11:47;42.47;;;20.60;;
16665;SDS011;8446;50.998;6.250;2022-07-30T06:14:14;40.20;;;19.47;;
16665;SDS011;8446;50.998;6.250;2022-07-30T06:16:42;44.60;;;19.87;;
16665;SDS011;8446;50.998;6.250;2022-07-30T06:19:09;34.40;;;18.87;;
16665;SDS011;8446;50.998;6.250;2022-07-30T06:21:36;33.57;;;20.03;;
16665;SDS011;8446;50.998;6.250;2022-07-30T06:24:03;40.20;;;22.53;;
16665;SDS011;8446;50.998;6.250;2022-07-30T06:26:30;40.00;;;19.37;;
16665;SDS011;8446;50.998;6.250;2022-07-30T06:28:57;37.03;;;19.80;;
16665;SDS011;8446;50.998;6.250;2022-07-30T06:31:23;37.13;;;20.23;;
16665;SDS011;8446;50.998;6.250;2022-07-30T06:33:52;37.37;;;19.20;;
16665;SDS011;8446;50.998;6.250;2022-07-30T06:36:19;30.43;;;17.20;;
16665;SDS011;8446;50.998;6.250;2022-07-30T06:38:45;38.90;;;20.30;;
16665;SDS011;8446;50.998;6.250;2022-07-30T06:41:12;47.33;;;21.53;;
16665;SDS011;8446;50.998;6.250;2022-07-30T06:43:39;39.33;;;19.80;;
16665;SDS011;8446;50.998;6.250;2022-07-30T06:46:06;45.17;;;19.73;;
16665;SDS011;8446;50.998;6.250;2022-07-30T06:48:33;34.03;;;18.00;;
16665;SDS011;8446;50.998;6.250;2022-07-30T06:51:02;44.00;;;20.40;;
16665;SDS011;8446;50.998;6.250;2022-07-30T06:53:29;37.67;;;19.20;;
16665;SDS011;8446;50.998;6.250;2022-07-30T06:55:56;39.20;;;17.80;;
16665;SDS011;8446;50.998;6.250;2022-07-30T06:58:23;44.23;;;18.47;;
16665;SDS011;8446;50.998;6.250;2022-07-30T07:00:49;34.63;;;17.20;;
16665;SDS011;8446;50.998;6.250;2022-07-30T07:03:16;30.83;;;17.97;;
16665;SDS011;8446;50.998;6.250;2022-07-30T07:05:43;29.60;;;15.80;;
16665;SDS011;8446;50.998;6.250;2022-07-30T07:08:11;32.03;;;17.57;;
16665;SDS011;8446;50.998;6.250;2022-07-30T07:10:38;35.07;;;17.27;;
16665;SDS011;8446;50.998;6.250;2022-07-30T07:13:05;32.27;;;16.67;;
16665;SDS011;8446;50.998;6.250;2022-07-30T07:15:32;30.17;;;14.87;;
16665;SDS011;8446;50.998;6.250;2022-07-30T07:17:58;35.60;;;18.43;;
16665;SDS011;8446;50.998;6.250;2022-07-30T07:20:25;29.90;;;17.53;;
16665;SDS011;8446;50.998;6.250;2022-07-30T07:22:52;38.20;;;19.20;;
16665;SDS011;8446;50.998;6.250;2022-07-30T07:25:20;37.63;;;18.87;;
16665;SDS011;8446;50.998;6.250;2022-07-30T07:27:47;53.87;;;17.13;;
16665;SDS011;8446;50.998;6.250;2022-07-30T07:30:14;28.07;;;16.70;;
16665;SDS011;8446;50.998;6.250;2022-07-30T07:32:41;33.20;;;15.80;;
16665;SDS011;8446;50.998;6.250;2022-07-30T07:35:08;30.60;;;15.80;;
16665;SDS011;8446;50.998;6.250;2022-07-30T07:37:36;28.60;;;15.20;;
16665;SDS011;8446;50.998;6.250;2022-07-30T07:40:03;31.97;;;15.47;;
16665;SDS011;8446;50.998;6.250;2022-07-30T07:42:33;28.33;;;15.80;;
16665;SDS011;8446;50.998;6.250;2022-07-30T07:44:59;27.00;;;15.90;;
16665;SDS011;8446;50.998;6.250;2022-07-30T07:47:26;31.47;;;14.10;;
16665;SDS011;8446;50.998;6.250;2022-07-30T07:49:53;28.27;;;15.97;;
16665;SDS011;8446;50.998;6.250;2022-07-30T07:52:20;31.13;;;14.50;;
16665;SDS011;8446;50.998;6.250;2022-07-30T07:54:47;25.50;;;17.10;;
16665;SDS011;8446;50.998;6.250;2022-07-30T07:57:14;32.80;;;15.63;;
16665;SDS011;8446;50.998;6.250;2022-07-30T07:59:42;30.30;;;15.20;;
16665;SDS011;8446;50.998;6.250;2022-07-30T08:02:09;33.37;;;14.37;;
16665;SDS011;8446;50.998;6.250;2022-07-30T08:04:36;24.23;;;13.90;;
16665;SDS011;8446;50.998;6.250;2022-07-30T08:07:02;26.57;;;14.57;;
16665;SDS011;8446;50.998;6.250;2022-07-30T08:09:29;27.30;;;14.27;;
16665;SDS011;8446;50.998;6.250;2022-07-30T08:11:57;24.20;;;14.70;;
16665;SDS011;8446;50.998;6.250;2022-07-30T08:14:24;29.87;;;15.03;;
16665;SDS011;8446;50.998;6.250;2022-07-30T08:16:53;34.47;;;14.87;;
16665;SDS011;8446;50.998;6.250;2022-07-30T08:19:19;21.90;;;13.47;;
16665;SDS011;8446;50.998;6.250;2022-07-30T08:21:46;26.97;;;14.53;;
16665;SDS011;8446;50.998;6.250;2022-07-30T08:24:13;25.90;;;14.17;;
16665;SDS011;8446;50.998;6.250;2022-07-30T08:26:40;26.93;;;13.40;;
16665;SDS011;8446;50.998;6.250;2022-07-30T08:29:06;29.77;;;14.80;;
16665;SDS011;8446;50.998;6.250;2022-07-30T08:31:33;19.67;;;11.90;;
16665;SDS011;8446;50.998;6.250;2022-07-30T08:34:02;27.83;;;13.57;;
16665;SDS011;8446;50.998;6.250;2022-07-30T08:36:28;23.00;;;12.33;;
16665;SDS011;8446;50.998;6.250;2022-07-30T08:38:55;27.57;;;11.63;;
16665;SDS011;8446;50.998;6.250;2022-07-30T08:41:22;22.97;;;12.13;;
16665;SDS011;8446;50.998;6.250;2022-07-30T08:43:50;25.70;;;11.93;;
16665;SDS011;8446;50.998;6.250;2022-07-30T08:46:17;24.47;;;11.90;;
16665;SDS011;8446;50.998;6.250;2022-07-30T08:48:49;20.97;;;11.10;;
16665;SDS011;8446;50.998;6.250;2022-07-30T08:51:19;17.47;;;9.73;;
16665;SDS011;8446;50.998;6.250;2022-07-30T08:53:47;25.87;;;10.57;;
16665;SDS011;8446;50.998;6.250;2022-07-30T08:56:14;30.93;;;9.77;;
16665;SDS011;8446;50.998;6.250;2022-07-30T08:58:42;23.77;;;9.93;;
16665;SDS011;8446;50.998;6.250;2022-07-30T09:01:10;18.53;;;9.00;;
16665;SDS011;8446;50.998;6.250;2022-07-30T09:03:37;14.40;;;10.70;;
16665;SDS011;8446;50.998;6.250;2022-07-30T09:06:04;17.83;;;8.53;;
16665;SDS011;8446;50.998;6.250;2022-07-30T09:08:32;11.53;;;7.90;;
16665;SDS011;8446;50.998;6.250;2022-07-30T09:10:59;13.90;;;8.73;;
16665;SDS011;8446;50.998;6.250;2022-07-30T09:13:27;16.97;;;8.07;;
16665;SDS011;8446;50.998;6.250;2022-07-30T09:15:55;18.50;;;8.30;;
16665;SDS011;8446;50.998;6.250;2022-07-30T09:18:26;10.93;;;6.40;;
16665;SDS011;8446;50.998;6.250;2022-07-30T09:20:54;12.60;;;6.80;;
16665;SDS011;8446;50.998;6.250;2022-07-30T09:23:21;10.87;;;5.77;;
16665;SDS011;8446;50.998;6.250;2022-07-30T09:25:49;11.90;;;8.03;;
16665;SDS011;8446;50.998;6.250;2022-07-30T09:28:17;15.43;;;7.00;;
16665;SDS011;8446;50.998;6.250;2022-07-30T09:30:54;8.80;;;4.30;;
16665;SDS011;8446;50.998;6.250;2022-07-30T09:33:31;11.03;;;5.50;;
16665;SDS011;8446;50.998;6.250;2022-07-30T09:36:00;10.67;;;5.80;;
16665;SDS011;8446;50.998;6.250;2022-07-30T09:38:27;13.10;;;5.57;;
16665;SDS011;8446;50.998;6.250;2022-07-30T09:40:56;11.37;;;7.27;;
16665;SDS011;8446;50.998;6.250;2022-07-30T09:43:23;16.03;;;7.30;;
16665;SDS011;8446;50.998;6.250;2022-07-30T09:45:52;12.30;;;7.97;;
16665;SDS011;8446;50.998;6.250;2022-07-30T09:48:22;20.73;;;7.20;;
16665;SDS011;8446;50.998;6.250;2022-07-30T09:50:52;9.00;;;5.50;;
16665;SDS011;8446;50.998;6.250;2022-07-30T09:53:20;11.40;;;5.30;;
16665;SDS011;8446;50.998;6.250;2022-07-30T09:55:47;8.83;;;5.00;;
16665;SDS011;8446;50.998;6.250;2022-07-30T09:58:16;8.10;;;4.53;;
16665;SDS011;8446;50.998;6.250;2022-07-30T10:00:44;10.03;;;4.80;;
16665;SDS011;8446;50.998;6.250;2022-07-30T10:03:14;11.50;;;5.23;;
16665;SDS011;8446;50.998;6.250;2022-07-30T10:05:49;8.47;;;4.20;;
16665;SDS011;8446;50.998;6.250;2022-07-30T10:08:16;7.83;;;3.90;;
16665;SDS011;8446;50.998;6.250;2022-07-30T10:10:43;9.30;;;4.23;;
16665;SDS011;8446;50.998;6.250;2022-07-30T10:13:12;4.87;;;3.67;;
16665;SDS011;8446;50.998;6.250;2022-07-30T10:15:40;5.37;;;3.13;;
16665;SDS011;8446;50.998;6.250;2022-07-30T10:18:09;10.37;;;3.73;;
16665;SDS011;8446;50.998;6.250;2022-07-30T10:20:37;5.97;;;3.43;;
16665;SDS011;8446;50.998;6.250;2022-07-30T10:23:05;6.20;;;3.50;;
16665;SDS011;8446;50.998;6.250;2022-07-30T10:25:32;4.70;;;3.77;;
16665;SDS011;8446;50.998;6.250;2022-07-30T10:27:59;5.90;;;3.70;;
16665;SDS011;8446;50.998;6.250;2022-07-30T10:30:27;5.60;;;3.23;;
16665;SDS011;8446;50.998;6.250;2022-07-30T10:32:57;5.50;;;3.40;;
16665;SDS011;8446;50.998;6.250;2022-07-30T10:35:24;8.50;;;3.23;;
16665;SDS011;8446;50.998;6.250;2022-07-30T10:37:51;9.17;;;4.07;;
16665;SDS011;8446;50.998;6.250;2022-07-30T10:40:22;11.13;;;3.50;;
16665;SDS011;8446;50.998;6.250;2022-07-30T10:42:58;4.23;;;3.10;;
16665;SDS011;8446;50.998;6.250;2022-07-30T10:45:44;6.97;;;4.13;;
16665;SDS011;8446;50.998;6.250;2022-07-30T10:48:17;5.30;;;3.77;;
16665;SDS011;8446;50.998;6.250;2022-07-30T10:50:48;5.40;;;3.30;;
16665;SDS011;8446;50.998;6.250;2022-07-30T10:53:30;4.73;;;3.50;;
16665;SDS011;8446;50.998;6.250;2022-07-30T11:04:35;5.80;;;4.20;;
16665;SDS011;8446;50.998;6.250;2022-07-30T11:09:57;4.40;;;4.00;;
16665;SDS011;8446;50.998;6.250;2022-07-30T11:15:22;5.40;;;3.80;;
16665;SDS011;8446;50.998;6.250;2022-07-30T11:18:02;8.53;;;4.23;;
16665;SDS011;8446;50.998;6.250;2022-07-30T11:20:32;5.87;;;3.80;;
16665;SDS011;8446;50.998;6.250;2022-07-30T11:23:10;6.83;;;3.77;;
16665;SDS011;8446;50.998;6.250;2022-07-30T11:25:52;4.93;;;3.93;;
16665;SDS011;8446;50.998;6.250;2022-07-30T11:28:32;5.20;;;3.87;;
16665;SDS011;8446;50.998;6.250;2022-07-30T11:31:04;8.00;;;3.30;;
16665;SDS011;8446;50.998;6.250;2022-07-30T11:37:02;5.10;;;3.13;;
16665;SDS011;8446;50.998;6.250;2022-07-30T11:42:33;4.60;;;2.67;;
16665;SDS011;8446;50.998;6.250;2022-07-30T11:45:20;2.40;;;2.20;;
16665;SDS011;8446;50.998;6.250;2022-07-30T11:47:51;4.47;;;3.20;;
16665;SDS011;8446;50.998;6.250;2022-07-30T11:50:20;4.97;;;3.00;;
16665;SDS011;8446;50.998;6.250;2022-07-30T11:52:50;4.07;;;2.70;;
16665;SDS011;8446;50.998;6.250;2022-07-30T11:55:21;3.30;;;2.60;;
16665;SDS011;8446;50.998;6.250;2022-07-30T11:57:49;3.07;;;2.77;;
16665;SDS011;8446;50.998;6.250;2022-07-30T12:00:16;4.50;;;2.90;;
16665;SDS011;8446;50.998;6.250;2022-07-30T12:02:43;3.50;;;3.20;;
16665;SDS011;8446;50.998;6.250;2022-07-30T12:05:10;5.00;;;2.90;;
16665;SDS011;8446;50.998;6.250;2022-07-30T12:07:38;7.60;;;2.80;;
16665;SDS011;8446;50.998;6.250;2022-07-30T12:10:12;2.87;;;2.50;;
16665;SDS011;8446;50.998;6.250;2022-07-30T12:12:40;3.77;;;2.33;;
16665;SDS011;8446;50.998;6.250;2022-07-30T12:15:08;9.50;;;2.27;;
16665;SDS011;8446;50.998;6.250;2022-07-30T12:17:39;7.27;;;2.43;;
16665;SDS011;8446;50.998;6.250;2022-07-30T12:20:12;4.40;;;2.37;;
16665;SDS011;8446;50.998;6.250;2022-07-30T12:22:41;5.83;;;3.10;;
16665;SDS011;8446;50.998;6.250;2022-07-30T12:25:08;2.30;;;1.80;;
16665;SDS011;8446;50.998;6.250;2022-07-30T12:27:36;6.50;;;3.00;;
16665;SDS011;8446;50.998;6.250;2022-07-30T12:30:04;3.87;;;1.37;;
16665;SDS011;8446;50.998;6.250;2022-07-30T12:32:32;2.87;;;1.60;;
16665;SDS011;8446;50.998;6.250;2022-07-30T12:35:00;6.20;;;1.60;;
16665;SDS011;8446;50.998;6.250;2022-07-30T12:37:26;2.20;;;1.53;;
16665;SDS011;8446;50.998;6.250;2022-07-30T12:40:03;1.77;;;1.57;;
16665;SDS011;8446;50.998;6.250;2022-07-30T12:42:31;4.97;;;1.70;;
16665;SDS011;8446;50.998;6.250;2022-07-30T12:44:59;1.63;;;1.27;;
16665;SDS011;8446;50.998;6.250;2022-07-30T12:47:27;1.40;;;1.30;;
16665;SDS011;8446;50.998;6.250;2022-07-30T12:49:55;2.10;;;1.40;;
16665;SDS011;8446;50.998;6.250;2022-07-30T12:52:24;1.23;;;1.13;;
16665;SDS011;8446;50.998;6.250;2022-07-30T12:54:55;1.80;;;1.70;;
16665;SDS011;8446;50.998;6.250;2022-07-30T12:57:23;5.20;;;1.47;;
16665;SDS011;8446;50.998;6.250;2022-07-30T13:00:00;1.50;;;1.23;;
16665;SDS011;8446;50.998;6.250;2022-07-30T13:02:30;3.27;;;1.53;;
16665;SDS011;8446;50.998;6.250;2022-07-30T13:04:57;2.17;;;1.50;;
16665;SDS011;8446;50.998;6.250;2022-07-30T13:07:24;1.93;;;1.47;;
16665;SDS011;8446;50.998;6.250;2022-07-30T13:10:04;1.70;;;1.60;;
16665;SDS011;8446;50.998;6.250;2022-07-30T13:12:32;3.63;;;1.50;;
16665;SDS011;8446;50.998;6.250;2022-07-30T13:15:00;2.13;;;1.57;;
16665;SDS011;8446;50.998;6.250;2022-07-30T13:17:27;2.50;;;1.33;;
16665;SDS011;8446;50.998;6.250;2022-07-30T13:19:54;6.20;;;1.50;;
16665;SDS011;8446;50.998;6.250;2022-07-30T13:22:21;1.60;;;1.50;;
16665;SDS011;8446;50.998;6.250;2022-07-30T13:24:47;3.23;;;2.00;;
16665;SDS011;8446;50.998;6.250;2022-07-30T13:27:14;4.27;;;1.70;;
16665;SDS011;8446;50.998;6.250;2022-07-30T13:29:42;5.47;;;1.77;;
16665;SDS011;8446;50.998;6.250;2022-07-30T13:32:10;1.83;;;1.60;;
16665;SDS011;8446;50.998;6.250;2022-07-30T13:34:36;2.83;;;1.50;;
16665;SDS011;8446;50.998;6.250;2022-07-30T13:37:05;3.83;;;1.80;;
16665;SDS011;8446;50.998;6.250;2022-07-30T13:39:32;4.50;;;1.43;;
16665;SDS011;8446;50.998;6.250;2022-07-30T13:42:00;3.73;;;1.60;;
16665;SDS011;8446;50.998;6.250;2022-07-30T13:44:27;3.13;;;2.20;;
16665;SDS011;8446;50.998;6.250;2022-07-30T13:46:53;4.00;;;1.63;;
16665;SDS011;8446;50.998;6.250;2022-07-30T13:49:22;7.30;;;2.23;;
16665;SDS011;8446;50.998;6.250;2022-07-30T13:51:48;4.33;;;1.90;;
16665;SDS011;8446;50.998;6.250;2022-07-30T13:54:15;2.20;;;1.60;;
16665;SDS011;8446;50.998;6.250;2022-07-30T13:56:42;2.20;;;1.73;;
16665;SDS011;8446;50.998;6.250;2022-07-30T13:59:09;2.00;;;1.77;;
16665;SDS011;8446;50.998;6.250;2022-07-30T14:01:35;2.50;;;1.70;;
16665;SDS011;8446;50.998;6.250;2022-07-30T14:04:03;8.10;;;2.03;;
16665;SDS011;8446;50.998;6.250;2022-07-30T14:06:32;1.93;;;1.73;;
16665;SDS011;8446;50.998;6.250;2022-07-30T14:08:58;6.60;;;2.20;;
16665;SDS011;8446;50.998;6.250;2022-07-30T14:11:25;5.90;;;1.80;;
16665;SDS011;8446;50.998;6.250;2022-07-30T14:13:52;5.73;;;1.90;;
16665;SDS011;8446;50.998;6.250;2022-07-30T14:16:19;3.40;;;2.00;;
16665;SDS011;8446;50.998;6.250;2022-07-30T14:18:45;3.47;;;1.73;;
16665;SDS011;8446;50.998;6.250;2022-07-30T14:21:12;4.70;;;1.97;;
16665;SDS011;8446;50.998;6.250;2022-07-30T14:23:40;5.47;;;2.37;;
16665;SDS011;8446;50.998;6.250;2022-07-30T14:26:07;3.20;;;1.93;;
16665;SDS011;8446;50.998;6.250;2022-07-30T14:28:34;3.33;;;2.00;;
16665;SDS011;8446;50.998;6.250;2022-07-30T14:31:01;2.67;;;1.90;;
16665;SDS011;8446;50.998;6.250;2022-07-30T14:33:28;3.50;;;1.60;;
16665;SDS011;8446;50.998;6.250;2022-07-30T14:35:55;27.40;;;4.40;;
16665;SDS011;8446;50.998;6.250;2022-07-30T14:38:21;4.90;;;1.80;;
16665;SDS011;8446;50.998;6.250;2022-07-30T14:40:50;3.30;;;1.90;;
16665;SDS011;8446;50.998;6.250;2022-07-30T14:43:16;2.53;;;1.90;;
16665;SDS011;8446;50.998;6.250;2022-07-30T14:45:43;6.63;;;2.20;;
16665;SDS011;8446;50.998;6.250;2022-07-30T14:48:14;3.30;;;1.60;;
16665;SDS011;8446;50.998;6.250;2022-07-30T14:50:41;2.03;;;1.50;;
16665;SDS011;8446;50.998;6.250;2022-07-30T14:53:08;3.40;;;1.90;;
16665;SDS011;8446;50.998;6.250;2022-07-30T14:55:35;3.93;;;1.80;;
16665;SDS011;8446;50.998;6.250;2022-07-30T14:58:03;2.47;;;2.00;;
16665;SDS011;8446;50.998;6.250;2022-07-30T15:00:30;1.90;;;1.70;;
16665;SDS011;8446;50.998;6.250;2022-07-30T15:02:57;2.37;;;1.43;;
16665;SDS011;8446;50.998;6.250;2022-07-30T15:05:24;2.83;;;1.50;;
16665;SDS011;8446;50.998;6.250;2022-07-30T15:07:50;7.87;;;1.90;;
16665;SDS011;8446;50.998;6.250;2022-07-30T15:10:17;3.23;;;1.60;;
16665;SDS011;8446;50.998;6.250;2022-07-30T15:12:44;6.90;;;2.10;;
16665;SDS011;8446;50.998;6.250;2022-07-30T15:15:12;10.53;;;2.30;;
16665;SDS011;8446;50.998;6.250;2022-07-30T15:17:39;16.43;;;3.00;;